sensor_id;sensor_type;location;lat;lon;timestamp;temperature;humidity
37460;DHT22;23318;50.966;5.284;2023-10-13T00:01:54;18.50;99.90
37460;DHT22;23318;50.966;5.284;2023-10-13T00:04:20;18.50;99.90
37460;DHT22;23318;50.966;5.284;2023-10-13T00:06:56;18.30;99.90
37460;DHT22;23318;50.966;5.284;2023-10-13T00:09:23;18.30;99.90
37460;DHT22;23318;50.966;5.284;2023-10-13T00:11:58;18.40;99.90
37460;DHT22;23318;50.966;5.284;2023-10-13T00:14:24;18.40;99.90
37460;DHT22;23318;50.966;5.284;2023-10-13T00:17:03;18.50;99.90
37460;DHT22;23318;50.966;5.284;2023-10-13T00:22:06;18.70;99.90
37460;DHT22;23318;50.966;5.284;2023-10-13T00:24:40;18.70;99.90
37460;DHT22;23318;50.966;5.284;2023-10-13T00:27:15;18.50;99.90
37460;DHT22;23318;50.966;5.284;2023-10-13T00:30:00;18.50;99.90
37460;DHT22;23318;50.966;5.284;2023-10-13T00:32:46;18.60;99.90
37460;DHT22;23318;50.966;5.284;2023-10-13T00:35:13;18.70;99.90
37460;DHT22;23318;50.966;5.284;2023-10-13T00:37:40;18.60;99.90
37460;DHT22;23318;50.966;5.284;2023-10-13T00:40:12;18.60;99.90
37460;DHT22;23318;50.966;5.284;2023-10-13T00:43:04;18.70;99.90
37460;DHT22;23318;50.966;5.284;2023-10-13T00:45:50;18.70;99.90
37460;DHT22;23318;50.966;5.284;2023-10-13T00:48:33;18.70;99.90
37460;DHT22;23318;50.966;5.284;2023-10-13T00:51:02;18.90;99.90
37460;DHT22;23318;50.966;5.284;2023-10-13T00:53:29;18.70;99.90
37460;DHT22;23318;50.966;5.284;2023-10-13T00:56:00;18.90;99.90
37460;DHT22;23318;50.966;5.284;2023-10-13T00:58:32;18.50;99.90
37460;DHT22;23318;50.966;5.284;2023-10-13T01:01:00;18.40;99.90
37460;DHT22;23318;50.966;5.284;2023-10-13T01:03:46;18.50;99.90
37460;DHT22;23318;50.966;5.284;2023-10-13T01:06:17;18.30;99.90
37460;DHT22;23318;50.966;5.284;2023-10-13T01:08:47;18.20;99.90
37460;DHT22;23318;50.966;5.284;2023-10-13T01:11:18;18.00;99.90
37460;DHT22;23318;50.966;5.284;2023-10-13T01:13:44;18.20;99.90
37460;DHT22;23318;50.966;5.284;2023-10-13T01:16:09;18.00;99.90
37460;DHT22;23318;50.966;5.284;2023-10-13T01:18:37;18.00;99.90
37460;DHT22;23318;50.966;5.284;2023-10-13T01:21:14;18.10;99.90
37460;DHT22;23318;50.966;5.284;2023-10-13T01:23:43;18.30;99.90
37460;DHT22;23318;50.966;5.284;2023-10-13T01:26:10;18.60;99.90
37460;DHT22;23318;50.966;5.284;2023-10-13T01:28:38;18.70;99.90
37460;DHT22;23318;50.966;5.284;2023-10-13T01:31:14;18.80;99.90
37460;DHT22;23318;50.966;5.284;2023-10-13T01:33:50;18.80;99.90
37460;DHT22;23318;50.966;5.284;2023-10-13T01:36:22;18.80;99.90
37460;DHT22;23318;50.966;5.284;2023-10-13T01:38:48;18.80;99.90
37460;DHT22;23318;50.966;5.284;2023-10-13T01:41:15;18.60;99.90
37460;DHT22;23318;50.966;5.284;2023-10-13T01:43:41;18.40;99.90
37460;DHT22;23318;50.966;5.284;2023-10-13T01:46:07;18.40;99.90
37460;DHT22;23318;50.966;5.284;2023-10-13T01:48:35;18.50;99.90
37460;DHT22;23318;50.966;5.284;2023-10-13T01:51:04;18.70;99.90
37460;DHT22;23318;50.966;5.284;2023-10-13T01:53:31;18.50;99.90
37460;DHT22;23318;50.966;5.284;2023-10-13T01:55:57;18.40;99.90
37460;DHT22;23318;50.966;5.284;2023-10-13T01:58:23;18.70;99.90
37460;DHT22;23318;50.966;5.284;2023-10-13T02:00:51;18.80;99.90
37460;DHT22;23318;50.966;5.284;2023-10-13T02:03:17;18.80;99.90
37460;DHT22;23318;50.966;5.284;2023-10-13T02:05:43;18.90;99.90
37460;DHT22;23318;50.966;5.284;2023-10-13T02:08:16;18.60;99.90
37460;DHT22;23318;50.966;5.284;2023-10-13T02:10:44;18.60;99.90
37460;DHT22;23318;50.966;5.284;2023-10-13T02:13:14;18.60;99.90
37460;DHT22;23318;50.966;5.284;2023-10-13T02:15:42;18.40;99.90
37460;DHT22;23318;50.966;5.284;2023-10-13T02:18:10;18.40;99.90
37460;DHT22;23318;50.966;5.284;2023-10-13T02:20:35;18.50;99.90
37460;DHT22;23318;50.966;5.284;2023-10-13T02:23:09;18.50;99.90
37460;DHT22;23318;50.966;5.284;2023-10-13T02:25:36;18.50;99.90
37460;DHT22;23318;50.966;5.284;2023-10-13T02:28:09;18.40;99.90
37460;DHT22;23318;50.966;5.284;2023-10-13T02:30:46;18.70;99.90
37460;DHT22;23318;50.966;5.284;2023-10-13T02:33:16;18.80;99.90
37460;DHT22;23318;50.966;5.284;2023-10-13T02:35:56;18.60;99.90
37460;DHT22;23318;50.966;5.284;2023-10-13T02:38:23;18.40;99.90
37460;DHT22;23318;50.966;5.284;2023-10-13T02:41:01;18.40;99.90
37460;DHT22;23318;50.966;5.284;2023-10-13T02:43:36;18.70;99.90
37460;DHT22;23318;50.966;5.284;2023-10-13T02:46:03;18.60;99.90
37460;DHT22;23318;50.966;5.284;2023-10-13T02:48:30;18.50;99.90
37460;DHT22;23318;50.966;5.284;2023-10-13T02:51:05;18.50;99.90
37460;DHT22;23318;50.966;5.284;2023-10-13T02:53:44;18.40;99.90
37460;DHT22;23318;50.966;5.284;2023-10-13T02:56:15;18.40;99.90
37460;DHT22;23318;50.966;5.284;2023-10-13T02:58:47;18.50;99.90
37460;DHT22;23318;50.966;5.284;2023-10-13T03:01:19;18.50;99.90
37460;DHT22;23318;50.966;5.284;2023-10-13T03:03:50;18.60;99.90
37460;DHT22;23318;50.966;5.284;2023-10-13T03:06:20;18.40;99.90
37460;DHT22;23318;50.966;5.284;2023-10-13T03:09:02;18.20;99.90
37460;DHT22;23318;50.966;5.284;2023-10-13T03:11:48;18.20;99.90
37460;DHT22;23318;50.966;5.284;2023-10-13T03:14:17;18.10;99.90
37460;DHT22;23318;50.966;5.284;2023-10-13T03:16:58;18.00;99.90
37460;DHT22;23318;50.966;5.284;2023-10-13T03:19:32;18.10;99.90
37460;DHT22;23318;50.966;5.284;2023-10-13T03:22:09;18.10;99.90
37460;DHT22;23318;50.966;5.284;2023-10-13T03:24:39;18.20;99.90
37460;DHT22;23318;50.966;5.284;2023-10-13T03:27:15;18.40;99.90
37460;DHT22;23318;50.966;5.284;2023-10-13T03:29:48;18.30;99.90
37460;DHT22;23318;50.966;5.284;2023-10-13T03:32:20;18.40;99.90
37460;DHT22;23318;50.966;5.284;2023-10-13T03:34:47;18.60;99.90
37460;DHT22;23318;50.966;5.284;2023-10-13T03:37:24;18.40;99.90
37460;DHT22;23318;50.966;5.284;2023-10-13T03:40:14;18.70;99.90
37460;DHT22;23318;50.966;5.284;2023-10-13T03:42:53;18.50;99.90
37460;DHT22;23318;50.966;5.284;2023-10-13T03:50:38;18.80;99.90
37460;DHT22;23318;50.966;5.284;2023-10-13T03:53:23;18.70;99.90
37460;DHT22;23318;50.966;5.284;2023-10-13T03:55:51;18.80;99.90
37460;DHT22;23318;50.966;5.284;2023-10-13T03:58:36;18.50;99.90
37460;DHT22;23318;50.966;5.284;2023-10-13T04:01:04;18.60;99.90
37460;DHT22;23318;50.966;5.284;2023-10-13T04:03:35;18.60;99.90
37460;DHT22;23318;50.966;5.284;2023-10-13T04:06:05;18.40;99.90
37460;DHT22;23318;50.966;5.284;2023-10-13T04:08:41;18.50;99.90
37460;DHT22;23318;50.966;5.284;2023-10-13T04:11:13;18.50;99.90
37460;DHT22;23318;50.966;5.284;2023-10-13T04:13:57;18.30;99.90
37460;DHT22;23318;50.966;5.284;2023-10-13T04:16:42;18.20;99.90
37460;DHT22;23318;50.966;5.284;2023-10-13T04:19:18;18.10;99.90
37460;DHT22;23318;50.966;5.284;2023-10-13T04:21:54;18.00;99.90
37460;DHT22;23318;50.966;5.284;2023-10-13T04:24:23;17.90;99.90
37460;DHT22;23318;50.966;5.284;2023-10-13T04:27:24;17.90;99.90
37460;DHT22;23318;50.966;5.284;2023-10-13T04:30:06;17.90;99.90
37460;DHT22;23318;50.966;5.284;2023-10-13T04:32:34;17.90;99.90
37460;DHT22;23318;50.966;5.284;2023-10-13T04:35:31;17.90;99.90
37460;DHT22;23318;50.966;5.284;2023-10-13T04:38:03;17.90;99.90
37460;DHT22;23318;50.966;5.284;2023-10-13T04:40:43;18.00;99.90
37460;DHT22;23318;50.966;5.284;2023-10-13T04:43:25;18.00;99.90
37460;DHT22;23318;50.966;5.284;2023-10-13T04:46:19;17.90;99.90
37460;DHT22;23318;50.966;5.284;2023-10-13T04:49:11;18.00;99.90
37460;DHT22;23318;50.966;5.284;2023-10-13T04:51:56;18.00;99.90
37460;DHT22;23318;50.966;5.284;2023-10-13T04:54:29;18.00;99.90
37460;DHT22;23318;50.966;5.284;2023-10-13T04:57:18;18.00;99.90
37460;DHT22;23318;50.966;5.284;2023-10-13T05:00:04;18.00;99.90
37460;DHT22;23318;50.966;5.284;2023-10-13T05:02:31;17.90;99.90
37460;DHT22;23318;50.966;5.284;2023-10-13T05:05:17;17.90;99.90
37460;DHT22;23318;50.966;5.284;2023-10-13T05:08:01;18.00;99.90
37460;DHT22;23318;50.966;5.284;2023-10-13T05:10:45;17.90;99.90
37460;DHT22;23318;50.966;5.284;2023-10-13T05:13:29;17.90;99.90
37460;DHT22;23318;50.966;5.284;2023-10-13T05:16:30;18.00;99.90
37460;DHT22;23318;50.966;5.284;2023-10-13T05:19:14;17.90;99.90
37460;DHT22;23318;50.966;5.284;2023-10-13T05:21:58;18.00;99.90
37460;DHT22;23318;50.966;5.284;2023-10-13T05:24:42;18.00;99.90
37460;DHT22;23318;50.966;5.284;2023-10-13T05:27:27;17.90;99.90
37460;DHT22;23318;50.966;5.284;2023-10-13T05:30:11;17.90;99.90
37460;DHT22;23318;50.966;5.284;2023-10-13T05:32:56;17.80;99.90
37460;DHT22;23318;50.966;5.284;2023-10-13T05:35:39;17.90;99.90
37460;DHT22;23318;50.966;5.284;2023-10-13T05:38:24;18.00;99.90
37460;DHT22;23318;50.966;5.284;2023-10-13T05:41:08;18.20;99.90
37460;DHT22;23318;50.966;5.284;2023-10-13T05:43:52;18.30;99.90
37460;DHT22;23318;50.966;5.284;2023-10-13T05:46:37;18.40;99.90
37460;DHT22;23318;50.966;5.284;2023-10-13T05:49:04;18.50;99.90
37460;DHT22;23318;50.966;5.284;2023-10-13T05:51:38;18.50;99.90
37460;DHT22;23318;50.966;5.284;2023-10-13T05:54:06;18.60;99.90
37460;DHT22;23318;50.966;5.284;2023-10-13T05:59:25;18.50;99.90
37460;DHT22;23318;50.966;5.284;2023-10-13T06:02:09;18.60;99.90
37460;DHT22;23318;50.966;5.284;2023-10-13T06:04:54;18.60;99.90
37460;DHT22;23318;50.966;5.284;2023-10-13T06:07:38;18.40;99.90
37460;DHT22;23318;50.966;5.284;2023-10-13T06:10:22;18.40;99.90
37460;DHT22;23318;50.966;5.284;2023-10-13T06:13:07;18.40;99.90
37460;DHT22;23318;50.966;5.284;2023-10-13T06:15:51;18.50;99.90
37460;DHT22;23318;50.966;5.284;2023-10-13T06:18:35;18.60;99.90
37460;DHT22;23318;50.966;5.284;2023-10-13T06:21:19;18.50;99.90
37460;DHT22;23318;50.966;5.284;2023-10-13T06:24:04;18.40;99.90
37460;DHT22;23318;50.966;5.284;2023-10-13T06:26:48;18.40;99.90
37460;DHT22;23318;50.966;5.284;2023-10-13T06:29:32;18.30;99.90
37460;DHT22;23318;50.966;5.284;2023-10-13T06:31:58;18.30;99.90
37460;DHT22;23318;50.966;5.284;2023-10-13T06:34:27;18.30;99.90
37460;DHT22;23318;50.966;5.284;2023-10-13T06:37:15;18.40;99.90
37460;DHT22;23318;50.966;5.284;2023-10-13T06:39:55;18.50;99.90
37460;DHT22;23318;50.966;5.284;2023-10-13T06:42:48;18.50;99.90
37460;DHT22;23318;50.966;5.284;2023-10-13T06:45:14;18.50;99.90
37460;DHT22;23318;50.966;5.284;2023-10-13T06:47:42;18.40;99.90
37460;DHT22;23318;50.966;5.284;2023-10-13T06:50:15;18.50;99.90
37460;DHT22;23318;50.966;5.284;2023-10-13T06:52:50;18.50;99.90
37460;DHT22;23318;50.966;5.284;2023-10-13T06:55:16;18.50;99.90
37460;DHT22;23318;50.966;5.284;2023-10-13T06:57:43;18.50;99.90
37460;DHT22;23318;50.966;5.284;2023-10-13T07:00:10;18.60;99.90
37460;DHT22;23318;50.966;5.284;2023-10-13T07:02:48;18.70;99.90
37460;DHT22;23318;50.966;5.284;2023-10-13T07:05:17;18.60;99.90
37460;DHT22;23318;50.966;5.284;2023-10-13T07:07:43;18.60;99.90
37460;DHT22;23318;50.966;5.284;2023-10-13T07:10:10;18.70;99.90
37460;DHT22;23318;50.966;5.284;2023-10-13T07:12:37;18.80;99.90
37460;DHT22;23318;50.966;5.284;2023-10-13T07:15:07;18.80;99.90
37460;DHT22;23318;50.966;5.284;2023-10-13T07:17:42;18.90;99.90
37460;DHT22;23318;50.966;5.284;2023-10-13T07:20:10;18.70;99.90
37460;DHT22;23318;50.966;5.284;2023-10-13T07:22:50;18.80;99.90
37460;DHT22;23318;50.966;5.284;2023-10-13T07:25:37;18.80;99.90
37460;DHT22;23318;50.966;5.284;2023-10-13T07:28:12;18.90;99.90
37460;DHT22;23318;50.966;5.284;2023-10-13T07:30:41;19.00;99.90
37460;DHT22;23318;50.966;5.284;2023-10-13T07:33:17;19.00;99.90
37460;DHT22;23318;50.966;5.284;2023-10-13T07:35:46;19.00;99.90
37460;DHT22;23318;50.966;5.284;2023-10-13T07:38:17;19.00;99.90
37460;DHT22;23318;50.966;5.284;2023-10-13T07:40:46;19.00;99.90
37460;DHT22;23318;50.966;5.284;2023-10-13T07:43:18;19.10;99.90
37460;DHT22;23318;50.966;5.284;2023-10-13T07:45:47;19.20;99.90
37460;DHT22;23318;50.966;5.284;2023-10-13T07:48:19;19.20;99.90
37460;DHT22;23318;50.966;5.284;2023-10-13T07:51:11;19.20;99.90
37460;DHT22;23318;50.966;5.284;2023-10-13T07:53:45;19.30;99.90
37460;DHT22;23318;50.966;5.284;2023-10-13T07:56:14;19.30;99.90
37460;DHT22;23318;50.966;5.284;2023-10-13T07:58:44;19.50;99.90
37460;DHT22;23318;50.966;5.284;2023-10-13T08:01:26;19.70;99.90
37460;DHT22;23318;50.966;5.284;2023-10-13T08:03:52;19.80;99.90
37460;DHT22;23318;50.966;5.284;2023-10-13T08:06:43;19.90;99.90
37460;DHT22;23318;50.966;5.284;2023-10-13T08:09:10;20.00;99.90
37460;DHT22;23318;50.966;5.284;2023-10-13T08:11:56;20.20;99.90
37460;DHT22;23318;50.966;5.284;2023-10-13T08:14:22;20.30;99.90
37460;DHT22;23318;50.966;5.284;2023-10-13T08:16:49;20.50;99.90
37460;DHT22;23318;50.966;5.284;2023-10-13T08:19:22;20.40;99.90
37460;DHT22;23318;50.966;5.284;2023-10-13T08:21:56;20.50;99.90
37460;DHT22;23318;50.966;5.284;2023-10-13T08:24:39;20.40;99.90
37460;DHT22;23318;50.966;5.284;2023-10-13T08:27:07;20.60;99.90
37460;DHT22;23318;50.966;5.284;2023-10-13T08:29:52;20.70;99.90
37460;DHT22;23318;50.966;5.284;2023-10-13T08:32:24;20.90;99.90
37460;DHT22;23318;50.966;5.284;2023-10-13T08:34:53;21.00;99.90
37460;DHT22;23318;50.966;5.284;2023-10-13T08:37:20;20.90;99.90
37460;DHT22;23318;50.966;5.284;2023-10-13T08:39:50;20.90;99.90
37460;DHT22;23318;50.966;5.284;2023-10-13T08:42:38;20.80;99.90
37460;DHT22;23318;50.966;5.284;2023-10-13T08:45:13;21.00;99.90
37460;DHT22;23318;50.966;5.284;2023-10-13T08:47:52;21.10;99.90
37460;DHT22;23318;50.966;5.284;2023-10-13T08:50:50;21.00;99.90
37460;DHT22;23318;50.966;5.284;2023-10-13T08:53:27;21.10;99.90
37460;DHT22;23318;50.966;5.284;2023-10-13T08:58:33;21.10;99.90
37460;DHT22;23318;50.966;5.284;2023-10-13T09:04:09;21.20;99.90
37460;DHT22;23318;50.966;5.284;2023-10-13T09:06:44;21.20;99.90
37460;DHT22;23318;50.966;5.284;2023-10-13T09:09:21;21.20;99.90
37460;DHT22;23318;50.966;5.284;2023-10-13T09:11:54;21.30;99.90
37460;DHT22;23318;50.966;5.284;2023-10-13T09:14:33;21.40;99.90
37460;DHT22;23318;50.966;5.284;2023-10-13T09:17:05;21.30;99.90
37460;DHT22;23318;50.966;5.284;2023-10-13T09:20:05;21.50;99.90
37460;DHT22;23318;50.966;5.284;2023-10-13T09:22:58;21.70;99.90
37460;DHT22;23318;50.966;5.284;2023-10-13T09:25:33;21.70;99.90
37460;DHT22;23318;50.966;5.284;2023-10-13T09:28:09;21.90;99.90
37460;DHT22;23318;50.966;5.284;2023-10-13T09:30:53;21.80;99.90
37460;DHT22;23318;50.966;5.284;2023-10-13T09:33:27;21.70;99.90
37460;DHT22;23318;50.966;5.284;2023-10-13T09:36:05;21.80;99.90
37460;DHT22;23318;50.966;5.284;2023-10-13T09:38:34;21.80;99.90
37460;DHT22;23318;50.966;5.284;2023-10-13T09:41:04;21.90;99.90
37460;DHT22;23318;50.966;5.284;2023-10-13T09:43:51;21.90;99.90
37460;DHT22;23318;50.966;5.284;2023-10-13T09:46:20;22.10;99.90
37460;DHT22;23318;50.966;5.284;2023-10-13T09:48:49;22.10;99.90
37460;DHT22;23318;50.966;5.284;2023-10-13T09:51:30;22.10;99.90
37460;DHT22;23318;50.966;5.284;2023-10-13T09:54:10;21.90;99.90
37460;DHT22;23318;50.966;5.284;2023-10-13T09:56:51;21.90;99.90
37460;DHT22;23318;50.966;5.284;2023-10-13T10:02:13;22.00;99.90
37460;DHT22;23318;50.966;5.284;2023-10-13T10:04:54;22.00;99.90
37460;DHT22;23318;50.966;5.284;2023-10-13T10:07:30;22.10;99.90
37460;DHT22;23318;50.966;5.284;2023-10-13T10:09:59;22.10;99.90
37460;DHT22;23318;50.966;5.284;2023-10-13T10:15:34;22.10;99.90
37460;DHT22;23318;50.966;5.284;2023-10-13T10:18:04;22.00;99.90
37460;DHT22;23318;50.966;5.284;2023-10-13T10:20:33;22.10;99.90
37460;DHT22;23318;50.966;5.284;2023-10-13T10:23:07;22.10;99.90
37460;DHT22;23318;50.966;5.284;2023-10-13T10:25:48;22.10;99.90
37460;DHT22;23318;50.966;5.284;2023-10-13T10:28:17;22.30;99.90
37460;DHT22;23318;50.966;5.284;2023-10-13T10:30:43;22.30;99.90
37460;DHT22;23318;50.966;5.284;2023-10-13T10:33:10;22.30;99.90
37460;DHT22;23318;50.966;5.284;2023-10-13T10:35:45;22.30;99.90
37460;DHT22;23318;50.966;5.284;2023-10-13T10:38:12;22.40;99.90
37460;DHT22;23318;50.966;5.284;2023-10-13T10:40:51;22.50;99.90
37460;DHT22;23318;50.966;5.284;2023-10-13T10:43:18;22.60;99.90
37460;DHT22;23318;50.966;5.284;2023-10-13T10:45:47;22.70;99.90
37460;DHT22;23318;50.966;5.284;2023-10-13T10:48:16;22.60;99.90
37460;DHT22;23318;50.966;5.284;2023-10-13T10:50:50;22.70;99.90
37460;DHT22;23318;50.966;5.284;2023-10-13T10:53:22;22.50;99.90
37460;DHT22;23318;50.966;5.284;2023-10-13T10:55:49;22.70;99.90
37460;DHT22;23318;50.966;5.284;2023-10-13T10:58:15;22.60;99.90
37460;DHT22;23318;50.966;5.284;2023-10-13T11:01:06;22.60;99.90
37460;DHT22;23318;50.966;5.284;2023-10-13T11:03:37;22.80;99.90
37460;DHT22;23318;50.966;5.284;2023-10-13T11:06:11;23.00;99.90
37460;DHT22;23318;50.966;5.284;2023-10-13T11:08:42;23.20;99.90
37460;DHT22;23318;50.966;5.284;2023-10-13T11:11:15;23.20;99.90
37460;DHT22;23318;50.966;5.284;2023-10-13T11:13:46;23.10;99.90
37460;DHT22;23318;50.966;5.284;2023-10-13T11:16:23;23.20;99.90
37460;DHT22;23318;50.966;5.284;2023-10-13T11:19:05;22.90;99.90
37460;DHT22;23318;50.966;5.284;2023-10-13T11:21:31;22.80;99.90
37460;DHT22;23318;50.966;5.284;2023-10-13T11:23:57;22.80;99.90
37460;DHT22;23318;50.966;5.284;2023-10-13T11:26:35;22.70;99.90
37460;DHT22;23318;50.966;5.284;2023-10-13T11:29:15;22.80;99.90
37460;DHT22;23318;50.966;5.284;2023-10-13T11:31:45;22.90;99.90
37460;DHT22;23318;50.966;5.284;2023-10-13T11:34:12;23.00;99.90
37460;DHT22;23318;50.966;5.284;2023-10-13T11:36:42;23.00;99.90
37460;DHT22;23318;50.966;5.284;2023-10-13T11:39:08;23.30;99.90
37460;DHT22;23318;50.966;5.284;2023-10-13T11:41:34;23.70;99.90
37460;DHT22;23318;50.966;5.284;2023-10-13T11:44:01;24.50;99.90
37460;DHT22;23318;50.966;5.284;2023-10-13T11:46:53;24.90;99.90
37460;DHT22;23318;50.966;5.284;2023-10-13T11:49:22;25.10;99.90
37460;DHT22;23318;50.966;5.284;2023-10-13T11:51:51;24.60;99.90
37460;DHT22;23318;50.966;5.284;2023-10-13T11:54:16;23.90;99.90
37460;DHT22;23318;50.966;5.284;2023-10-13T11:56:43;23.50;99.90
37460;DHT22;23318;50.966;5.284;2023-10-13T11:59:10;23.20;99.90
37460;DHT22;23318;50.966;5.284;2023-10-13T12:01:50;23.10;99.90
37460;DHT22;23318;50.966;5.284;2023-10-13T12:04:36;23.10;99.90
37460;DHT22;23318;50.966;5.284;2023-10-13T12:07:21;23.20;99.90
37460;DHT22;23318;50.966;5.284;2023-10-13T12:09:52;23.40;99.90
37460;DHT22;23318;50.966;5.284;2023-10-13T12:12:24;23.30;99.90
37460;DHT22;23318;50.966;5.284;2023-10-13T12:14:51;23.30;99.90
37460;DHT22;23318;50.966;5.284;2023-10-13T12:17:30;23.40;99.90
37460;DHT22;23318;50.966;5.284;2023-10-13T12:20:05;23.60;99.90
37460;DHT22;23318;50.966;5.284;2023-10-13T12:22:35;23.90;99.90
37460;DHT22;23318;50.966;5.284;2023-10-13T12:25:05;24.80;99.90
37460;DHT22;23318;50.966;5.284;2023-10-13T12:27:50;25.50;99.90
37460;DHT22;23318;50.966;5.284;2023-10-13T12:30:21;25.20;99.90
37460;DHT22;23318;50.966;5.284;2023-10-13T12:33:14;25.30;99.90
37460;DHT22;23318;50.966;5.284;2023-10-13T12:35:42;26.00;99.90
37460;DHT22;23318;50.966;5.284;2023-10-13T12:38:41;26.50;99.80
37460;DHT22;23318;50.966;5.284;2023-10-13T12:41:19;25.70;99.90
37460;DHT22;23318;50.966;5.284;2023-10-13T12:44:04;26.00;99.90
37460;DHT22;23318;50.966;5.284;2023-10-13T12:46:49;25.40;99.90
37460;DHT22;23318;50.966;5.284;2023-10-13T12:49:34;24.40;99.90
37460;DHT22;23318;50.966;5.284;2023-10-13T12:52:06;24.10;99.90
37460;DHT22;23318;50.966;5.284;2023-10-13T12:54:51;23.90;99.90
37460;DHT22;23318;50.966;5.284;2023-10-13T12:57:28;23.90;99.90
37460;DHT22;23318;50.966;5.284;2023-10-13T12:59:55;23.60;99.90
37460;DHT22;23318;50.966;5.284;2023-10-13T13:02:25;23.20;99.90
37460;DHT22;23318;50.966;5.284;2023-10-13T13:04:52;23.10;99.90
37460;DHT22;23318;50.966;5.284;2023-10-13T13:07:23;22.90;99.90
37460;DHT22;23318;50.966;5.284;2023-10-13T13:09:54;23.00;99.90
37460;DHT22;23318;50.966;5.284;2023-10-13T13:12:24;23.10;99.90
37460;DHT22;23318;50.966;5.284;2023-10-13T13:14:50;23.10;99.90
37460;DHT22;23318;50.966;5.284;2023-10-13T13:17:21;23.00;99.90
37460;DHT22;23318;50.966;5.284;2023-10-13T13:19:46;23.00;99.90
37460;DHT22;23318;50.966;5.284;2023-10-13T13:22:12;22.90;99.90
37460;DHT22;23318;50.966;5.284;2023-10-13T13:24:39;22.90;99.90
37460;DHT22;23318;50.966;5.284;2023-10-13T13:27:10;22.90;99.90
37460;DHT22;23318;50.966;5.284;2023-10-13T13:29:42;22.80;99.90
37460;DHT22;23318;50.966;5.284;2023-10-13T13:32:08;22.80;99.90
37460;DHT22;23318;50.966;5.284;2023-10-13T13:34:47;22.70;99.90
37460;DHT22;23318;50.966;5.284;2023-10-13T13:37:21;22.70;99.90
37460;DHT22;23318;50.966;5.284;2023-10-13T13:39:46;22.60;99.90
37460;DHT22;23318;50.966;5.284;2023-10-13T13:42:12;22.60;99.90
37460;DHT22;23318;50.966;5.284;2023-10-13T13:44:44;22.60;99.90
37460;DHT22;23318;50.966;5.284;2023-10-13T13:47:12;22.60;99.90
37460;DHT22;23318;50.966;5.284;2023-10-13T13:49:39;22.70;99.90
37460;DHT22;23318;50.966;5.284;2023-10-13T13:52:08;22.70;99.90
37460;DHT22;23318;50.966;5.284;2023-10-13T13:54:35;22.70;99.90
37460;DHT22;23318;50.966;5.284;2023-10-13T13:57:01;22.70;99.90
37460;DHT22;23318;50.966;5.284;2023-10-13T13:59:26;22.80;99.90
37460;DHT22;23318;50.966;5.284;2023-10-13T14:02:00;22.80;99.90
37460;DHT22;23318;50.966;5.284;2023-10-13T14:04:25;22.80;99.90
37460;DHT22;23318;50.966;5.284;2023-10-13T14:06:56;22.70;99.90
37460;DHT22;23318;50.966;5.284;2023-10-13T14:09:22;22.60;99.90
37460;DHT22;23318;50.966;5.284;2023-10-13T14:12:01;22.50;99.90
37460;DHT22;23318;50.966;5.284;2023-10-13T14:14:44;22.40;99.90
37460;DHT22;23318;50.966;5.284;2023-10-13T14:17:28;22.40;99.90
37460;DHT22;23318;50.966;5.284;2023-10-13T14:20:01;22.40;99.90
37460;DHT22;23318;50.966;5.284;2023-10-13T14:22:40;22.50;99.90
37460;DHT22;23318;50.966;5.284;2023-10-13T14:25:07;22.50;99.90
37460;DHT22;23318;50.966;5.284;2023-10-13T14:27:35;22.40;99.90
37460;DHT22;23318;50.966;5.284;2023-10-13T14:30:01;22.40;99.90
37460;DHT22;23318;50.966;5.284;2023-10-13T14:32:28;22.40;99.90
37460;DHT22;23318;50.966;5.284;2023-10-13T14:34:54;22.40;99.90
37460;DHT22;23318;50.966;5.284;2023-10-13T14:37:23;22.40;99.90
37460;DHT22;23318;50.966;5.284;2023-10-13T14:39:55;22.40;99.90
37460;DHT22;23318;50.966;5.284;2023-10-13T14:42:26;22.40;99.90
37460;DHT22;23318;50.966;5.284;2023-10-13T14:44:52;22.40;99.90
37460;DHT22;23318;50.966;5.284;2023-10-13T14:47:27;22.40;99.90
37460;DHT22;23318;50.966;5.284;2023-10-13T14:49:53;22.50;99.90
37460;DHT22;23318;50.966;5.284;2023-10-13T14:52:25;22.70;99.90
37460;DHT22;23318;50.966;5.284;2023-10-13T14:54:51;22.50;99.90
37460;DHT22;23318;50.966;5.284;2023-10-13T14:57:21;22.40;99.90
37460;DHT22;23318;50.966;5.284;2023-10-13T14:59:51;22.30;99.90
37460;DHT22;23318;50.966;5.284;2023-10-13T15:02:17;22.40;99.90
37460;DHT22;23318;50.966;5.284;2023-10-13T15:04:43;22.40;99.90
37460;DHT22;23318;50.966;5.284;2023-10-13T15:07:08;22.30;99.90
37460;DHT22;23318;50.966;5.284;2023-10-13T15:09:34;22.40;99.90
37460;DHT22;23318;50.966;5.284;2023-10-13T15:12:00;22.40;99.90
37460;DHT22;23318;50.966;5.284;2023-10-13T15:14:30;22.40;99.90
37460;DHT22;23318;50.966;5.284;2023-10-13T15:16:58;22.30;99.90
37460;DHT22;23318;50.966;5.284;2023-10-13T15:19:26;22.30;99.90
37460;DHT22;23318;50.966;5.284;2023-10-13T15:21:54;22.20;99.90
37460;DHT22;23318;50.966;5.284;2023-10-13T15:24:20;22.20;99.90
37460;DHT22;23318;50.966;5.284;2023-10-13T15:26:47;22.20;99.90
37460;DHT22;23318;50.966;5.284;2023-10-13T15:29:17;22.00;99.90
37460;DHT22;23318;50.966;5.284;2023-10-13T15:31:44;21.90;99.90
37460;DHT22;23318;50.966;5.284;2023-10-13T15:34:25;21.90;99.90
37460;DHT22;23318;50.966;5.284;2023-10-13T15:36:52;21.80;99.90
37460;DHT22;23318;50.966;5.284;2023-10-13T15:39:20;21.70;99.90
37460;DHT22;23318;50.966;5.284;2023-10-13T15:41:57;21.70;99.90
37460;DHT22;23318;50.966;5.284;2023-10-13T15:44:27;21.50;99.90
37460;DHT22;23318;50.966;5.284;2023-10-13T15:46:57;21.40;99.90
37460;DHT22;23318;50.966;5.284;2023-10-13T15:49:23;21.30;99.90
37460;DHT22;23318;50.966;5.284;2023-10-13T15:51:49;21.20;99.90
37460;DHT22;23318;50.966;5.284;2023-10-13T15:54:17;21.20;99.90
37460;DHT22;23318;50.966;5.284;2023-10-13T15:56:44;20.80;99.90
37460;DHT22;23318;50.966;5.284;2023-10-13T15:59:10;20.60;99.90
37460;DHT22;23318;50.966;5.284;2023-10-13T16:01:36;20.30;99.90
37460;DHT22;23318;50.966;5.284;2023-10-13T16:04:04;20.10;99.90
37460;DHT22;23318;50.966;5.284;2023-10-13T16:06:37;20.10;99.90
37460;DHT22;23318;50.966;5.284;2023-10-13T16:09:03;20.10;99.90
37460;DHT22;23318;50.966;5.284;2023-10-13T16:11:29;20.00;99.90
37460;DHT22;23318;50.966;5.284;2023-10-13T16:13:55;20.00;99.90
37460;DHT22;23318;50.966;5.284;2023-10-13T16:16:22;19.90;99.90
37460;DHT22;23318;50.966;5.284;2023-10-13T16:18:51;20.00;99.90
37460;DHT22;23318;50.966;5.284;2023-10-13T16:21:18;20.10;99.90
37460;DHT22;23318;50.966;5.284;2023-10-13T16:23:48;20.00;99.90
37460;DHT22;23318;50.966;5.284;2023-10-13T16:26:22;19.90;99.90
37460;DHT22;23318;50.966;5.284;2023-10-13T16:28:48;20.00;99.90
37460;DHT22;23318;50.966;5.284;2023-10-13T16:31:19;19.90;99.90
37460;DHT22;23318;50.966;5.284;2023-10-13T16:33:48;19.70;99.90